Old Union, Mississippi
Current Conditions -  °F | °C
As of 1:53 PM on Friday 24 Oct 2014 (Local Time) from KTUP Reporting Station
Clear Clear  
Wind Chill: 22°   Ceiling: Unl
Heat Index: 22°   Visibility: 10mi
Dew Point:   Wind: 9mph
Humidity: 33%   Direction: 360°N
Pressure: 30.09"   Gusts: NA
Location:  34.1202°N, 88.7439°W
Report Text: KTUP 241853Z AUTO 36008KT 10SM CLR 22/05 A3009 RMK AO2 SLP186 T02220050 $
Loading
Personal Weather Stations






























Interactive Weather Map
Tropical Storm Tracking
New forecast layout! Learn more

10-Day Weather Forecast

Advertisements
Track Severe Weather on mobile